Time;durP1;ratioP1;P1;durP2;ratioP2;P2;SDS_P1;SDS_P2;PMS_P1;PMS_P2;Temp;Humidity;BMP_temperature;BMP_pressure;BME280_temperature;BME280_humidity;BME280_pressure;Samples;Min_cycle;Max_cycle;Signal;HPM_P1;HPM_P2
2022/11/10 00:01:05;;;;;;;19.57;14.10;;;;;;;9.42;100.00;100661.50;5115209;28;20375;-78
2022/11/10 00:03:31;;;;;;;20.87;13.50;;;;;;;9.43;100.00;100657.88;5114933;28;20035;-78
2022/11/10 00:05:57;;;;;;;20.07;13.77;;;;;;;9.46;100.00;100662.88;5114456;28;20031;-76
2022/11/10 00:08:25;;;;;;;16.73;13.23;;;;;;;9.44;100.00;100656.88;5100422;28;20403;-76
2022/11/10 00:11:00;;;;;;;15.70;12.57;;;;;;;9.47;100.00;100661.88;5133292;28;20042;-78
2022/11/10 00:13:34;;;;;;;19.60;13.97;;;;;;;9.42;100.00;100650.88;5132965;28;20027;-77
2022/11/10 00:18:46;;;;;;;19.00;13.70;;;;;;;9.44;100.00;100659.53;5128389;28;20023;-76
2022/11/10 00:21:13;;;;;;;17.73;12.37;;;;;;;9.41;100.00;100653.69;5115399;28;20015;-78
2022/11/10 00:23:39;;;;;;;13.47;11.50;;;;;;;9.40;100.00;100658.19;5115613;28;20027;-77
2022/11/10 00:26:14;;;;;;;17.10;11.90;;;;;;;9.43;100.00;100659.69;5115397;28;20543;-77
2022/11/10 00:28:39;;;;;;;15.53;12.03;;;;;;;9.33;100.00;100646.53;5114335;28;20020;-77
2022/11/10 00:31:06;;;;;;;12.63;10.80;;;;;;;9.42;100.00;100650.03;5113990;28;20020;-77
2022/11/10 00:33:36;;;;;;;14.57;11.17;;;;;;;9.43;100.00;100657.88;5114557;28;20424;-78
2022/11/10 00:36:02;;;;;;;14.13;11.20;;;;;;;9.40;100.00;100649.38;5114804;28;20035;-77
2022/11/10 00:38:28;;;;;;;16.67;12.77;;;;;;;9.45;100.00;100660.38;5115260;28;20020;-77
2022/11/10 00:40:54;;;;;;;15.77;12.13;;;;;;;9.48;100.00;100655.56;5114401;28;20023;-76
2022/11/10 00:43:19;;;;;;;12.43;10.23;;;;;;;9.50;100.00;100653.56;5114341;28;20505;-77
2022/11/10 00:45:46;;;;;;;18.23;11.70;;;;;;;9.47;100.00;100659.22;5114644;28;20051;-77
2022/11/10 00:48:14;;;;;;;14.93;10.27;;;;;;;9.47;100.00;100648.56;5114826;28;20127;-77
2022/11/10 00:50:40;;;;;;;12.20;9.87;;;;;;;9.44;100.00;100646.22;5113734;28;20109;-76
2022/11/10 00:53:06;;;;;;;12.57;9.77;;;;;;;9.51;100.00;100655.25;5114286;28;20111;-77
2022/11/10 00:55:31;;;;;;;12.77;10.43;;;;;;;9.43;100.00;100647.22;5115582;28;20028;-78
2022/11/10 00:57:57;;;;;;;11.23;8.93;;;;;;;9.47;100.00;100647.75;5114356;28;20024;-77
2022/11/10 01:00:23;;;;;;;11.80;9.20;;;;;;;9.47;100.00;100647.75;5114056;28;20030;-77
2022/11/10 01:02:48;;;;;;;11.83;9.53;;;;;;;9.48;100.00;100652.91;5114489;28;20019;-77
2022/11/10 01:05:13;;;;;;;10.27;8.87;;;;;;;9.26;100.00;100611.78;5114533;28;20031;-76
2022/11/10 01:07:39;;;;;;;11.20;9.17;;;;;;;9.46;100.00;100636.28;5113914;28;20054;-77
2022/11/10 01:10:05;;;;;;;11.83;9.53;;;;;;;9.53;100.00;100652.41;5115545;28;20038;-76
2022/11/10 01:12:56;;;;;;;12.50;8.67;;;;;;;9.45;100.00;100641.75;5115968;28;20485;-78
2022/11/10 01:15:22;;;;;;;11.60;9.10;;;;;;;9.49;100.00;100651.91;5112780;28;20118;-77
2022/11/10 01:17:48;;;;;;;13.40;8.97;;;;;;;9.47;100.00;100656.56;5118394;28;20042;-77
2022/11/10 01:20:13;;;;;;;11.07;8.73;;;;;;;9.52;100.00;100656.91;5118388;28;20019;-77
2022/11/10 01:22:39;;;;;;;11.70;8.73;;;;;;;9.49;100.00;100643.09;5118489;27;20028;-77
2022/11/10 01:25:05;;;;;;;10.90;8.60;;;;;;;9.49;100.00;100643.09;5117963;28;20386;-77
2022/11/10 01:27:31;;;;;;;11.63;9.60;;;;;;;9.57;100.00;100656.47;5118119;28;20484;-77
2022/11/10 01:29:57;;;;;;;10.13;8.23;;;;;;;9.52;100.00;100651.59;5117361;28;20098;-78
2022/11/10 01:32:22;;;;;;;10.33;8.20;;;;;;;9.51;100.00;100660.56;5117686;28;20046;-77
2022/11/10 01:34:48;;;;;;;11.30;8.47;;;;;;;9.52;100.00;100656.06;5117914;28;20027;-78
2022/11/10 01:37:13;;;;;;;11.60;8.70;;;;;;;9.47;100.00;100655.72;5117550;28;20055;-77
2022/11/10 01:39:39;;;;;;;10.00;8.37;;;;;;;9.50;100.00;100658.88;5117515;28;20462;-78
2022/11/10 01:42:04;;;;;;;16.90;9.13;;;;;;;9.42;100.00;100642.91;5115962;28;20027;-77
2022/11/10 01:44:35;;;;;;;10.23;8.40;;;;;;;9.44;100.00;100648.06;5116633;28;20105;-78
2022/11/10 01:47:01;;;;;;;11.57;9.53;;;;;;;9.44;100.00;100651.56;5117124;28;20067;-78
2022/11/10 01:49:31;;;;;;;11.43;9.20;;;;;;;9.46;100.00;100652.22;5117039;28;20054;-77
2022/11/10 01:52:05;;;;;;;9.50;8.13;;;;;;;9.43;100.00;100641.91;5115713;28;20024;-79
2022/11/10 01:54:38;;;;;;;11.03;8.40;;;;;;;9.44;100.00;100640.91;5115821;28;20020;-78
2022/11/10 01:57:07;;;;;;;13.23;8.87;;;;;;;9.41;100.00;100646.56;5117044;28;20070;-77
2022/11/10 01:59:42;;;;;;;10.03;8.73;;;;;;;9.43;100.00;100646.41;5116937;28;20027;-77
2022/11/10 02:02:19;;;;;;;10.77;9.60;;;;;;;9.47;100.00;100651.22;5116973;28;20023;-78
2022/11/10 02:04:45;;;;;;;10.47;8.07;;;;;;;9.47;100.00;100659.22;5116552;27;20065;-78
2022/11/10 02:07:11;;;;;;;10.03;8.13;;;;;;;9.49;100.00;100649.25;5116200;28;20023;-77
2022/11/10 02:09:39;;;;;;;9.20;8.18;;;;;;;9.51;100.00;100660.56;5114510;28;20020;-76
2022/11/10 02:12:05;;;;;;;9.40;8.33;;;;;;;9.51;100.00;100662.38;5115506;28;20028;-77
2022/11/10 02:14:56;;;;;;;10.50;8.37;;;;;;;9.49;100.00;100662.53;5116483;28;20046;-78
2022/11/10 02:17:21;;;;;;;14.43;8.93;;;;;;;9.43;100.00;100655.22;5116496;28;20410;-80
2022/11/10 02:19:47;;;;;;;12.20;8.80;;;;;;;9.49;100.00;100665.19;5115153;28;20024;-77
2022/11/10 02:22:12;;;;;;;10.83;9.23;;;;;;;9.40;100.00;100652.88;5116517;28;20118;-77
2022/11/10 02:24:38;;;;;;;9.67;8.67;;;;;;;9.46;100.00;100657.53;5116853;28;20024;-78
2022/11/10 02:27:03;;;;;;;9.87;8.83;;;;;;;9.48;100.00;100662.69;5116417;28;20034;-78
2022/11/10 02:29:29;;;;;;;10.33;8.53;;;;;;;9.43;100.00;100655.22;5116687;28;20068;-78
2022/11/10 02:31:54;;;;;;;12.03;8.80;;;;;;;9.44;100.00;100669.31;5115910;27;20027;-76
2022/11/10 02:34:20;;;;;;;12.23;8.43;;;;;;;9.38;100.00;100660.16;5116618;28;20041;-77
2022/11/10 02:36:45;;;;;;;10.53;8.90;;;;;;;9.40;100.00;100663.50;5115069;28;20072;-78
2022/11/10 02:39:11;;;;;;;9.83;8.33;;;;;;;9.42;100.00;100666.00;5116919;28;20142;-77
2022/11/10 02:41:36;;;;;;;12.23;8.17;;;;;;;9.26;100.00;100634.84;5117187;28;20035;-77
2022/11/10 02:44:05;;;;;;;10.20;9.10;;;;;;;9.45;100.00;100671.00;5116727;28;20020;-77
2022/11/10 02:46:32;;;;;;;11.00;7.80;;;;;;;9.35;100.00;100671.13;5116459;27;20024;-77
2022/11/10 02:48:57;;;;;;;10.60;8.03;;;;;;;9.30;100.00;100674.25;5114633;28;20520;-77
2022/11/10 02:51:23;;;;;;;9.57;7.97;;;;;;;9.24;100.00;100663.38;5116007;28;20038;-77
2022/11/10 02:53:49;;;;;;;9.70;8.67;;;;;;;9.30;100.00;100674.25;5116800;28;20111;-77
2022/11/10 02:56:14;;;;;;;9.53;7.60;;;;;;;9.31;100.00;100675.06;5116626;28;20034;-79
2022/11/10 02:58:40;;;;;;;9.37;6.93;;;;;;;9.30;100.00;100678.72;5116144;28;20415;-77
2022/11/10 03:01:05;;;;;;;8.27;7.17;;;;;;;9.23;100.00;100667.03;5114988;28;20027;-77
2022/11/10 03:03:31;;;;;;;9.97;7.23;;;;;;;9.22;100.00;100663.53;5114406;28;20047;-77
2022/11/10 03:05:57;;;;;;;8.80;7.73;;;;;;;9.24;100.00;100668.69;5114545;28;20035;-78
2022/11/10 03:08:23;;;;;;;8.37;6.80;;;;;;;9.15;100.00;100649.22;5116264;28;20024;-77
2022/11/10 03:10:52;;;;;;;8.10;6.70;;;;;;;9.16;100.00;100660.69;5115963;28;20515;-76
2022/11/10 03:13:17;;;;;;;8.00;6.77;;;;;;;9.09;100.00;100671.09;5116742;27;20022;-77
2022/11/10 03:15:47;;;;;;;8.93;6.80;;;;;;;9.14;100.00;100675.94;5116588;28;20045;-77
2022/11/10 03:18:12;;;;;;;7.87;6.17;;;;;;;9.05;100.00;100659.13;5117465;28;20024;-77
2022/11/10 03:20:38;;;;;;;6.80;5.80;;;;;;;9.15;100.00;100675.78;5118583;28;20257;-76
2022/11/10 03:23:04;;;;;;;7.00;6.30;;;;;;;9.12;100.00;100667.28;5120390;27;20046;-77
2022/11/10 03:25:30;;;;;;;8.43;6.43;;;;;;;9.13;100.00;100674.28;5126228;28;20035;-76
2022/11/10 03:27:55;;;;;;;9.03;5.87;;;;;;;9.14;100.00;100668.81;5123410;28;20042;-77
2022/11/10 03:30:21;;;;;;;8.97;5.80;;;;;;;9.18;100.00;100672.81;5124124;28;20027;-77
2022/11/10 03:32:46;;;;;;;6.43;5.33;;;;;;;9.24;100.00;100671.34;5119832;28;20412;-78
2022/11/10 03:35:12;;;;;;;6.50;5.83;;;;;;;9.22;100.00;100668.03;5119802;28;20019;-77
2022/11/10 03:37:41;;;;;;;7.23;5.93;;;;;;;9.25;100.00;100681.00;5116968;27;20073;-77
2022/11/10 03:40:07;;;;;;;7.18;5.75;;;;;;;9.22;100.00;100676.00;5115557;28;20118;-76
2022/11/10 03:42:51;;;;;;;6.53;5.53;;;;;;;9.24;100.00;100679.31;5115710;28;20053;-77
2022/11/10 03:45:19;;;;;;;6.57;5.90;;;;;;;9.17;100.00;100670.31;5115319;27;20111;-78
2022/11/10 03:47:48;;;;;;;6.32;5.75;;;;;;;9.24;100.00;100679.31;5115793;28;20036;-79
2022/11/10 03:50:15;;;;;;;9.67;6.00;;;;;;;9.26;100.00;100678.22;5116012;28;20057;-77
2022/11/10 03:52:45;;;;;;;6.87;5.70;;;;;;;9.23;100.00;100667.88;5116354;28;20031;-77
2022/11/10 03:55:12;;;;;;;7.90;6.03;;;;;;;9.26;100.00;100675.56;5116610;28;20031;-78
2022/11/10 03:57:38;;;;;;;8.80;5.83;;;;;;;9.30;100.00;100671.59;5115942;28;20034;-76
2022/11/10 04:00:04;;;;;;;6.77;5.30;;;;;;;9.30;100.00;100673.41;5115144;28;20684;-76
2022/11/10 04:02:31;;;;;;;7.33;5.50;;;;;;;9.29;100.00;100677.91;5116390;28;20074;-77
2022/11/10 04:10:27;;;;;;;6.70;5.33;;;;;;;9.35;100.00;100680.91;5118795;28;20038;-76
2022/11/10 04:15:43;;;;;;;6.17;4.73;;;;;;;9.39;100.00;100683.09;5114722;28;20471;-74
2022/11/10 04:18:19;;;;;;;7.20;5.60;;;;;;;9.34;100.00;100671.28;5120835;28;20046;-76
2022/11/10 04:20:48;;;;;;;5.33;4.83;;;;;;;9.35;100.00;100676.44;5118584;28;20030;-74
2022/11/10 04:23:27;;;;;;;6.50;4.77;;;;;;;9.40;100.00;100684.75;5121789;28;20751;-74
2022/11/10 04:28:46;;;;;;;6.43;4.97;;;;;;;9.34;100.00;100690.72;5120388;28;20057;-76
2022/11/10 04:31:13;;;;;;;4.90;4.47;;;;;;;9.34;100.00;100690.72;5119292;28;20027;-78
2022/11/10 04:33:40;;;;;;;4.83;4.37;;;;;;;9.28;100.00;100694.84;5118102;28;20096;-75
2022/11/10 04:36:07;;;;;;;5.10;4.57;;;;;;;9.29;100.00;100693.00;5113913;28;20066;-76
2022/11/10 04:38:33;;;;;;;4.63;4.23;;;;;;;9.31;100.00;100691.84;5113841;28;20031;-75
2022/11/10 04:40:59;;;;;;;6.67;4.40;;;;;;;9.30;100.00;100686.69;5113662;28;20084;-74
2022/11/10 04:43:24;;;;;;;4.67;4.20;;;;;;;9.34;100.00;100689.88;5113616;28;20519;-77
2022/11/10 04:45:51;;;;;;;5.50;4.20;;;;;;;9.26;100.00;100678.22;5112210;28;20039;-77
2022/11/10 04:48:17;;;;;;;4.37;3.97;;;;;;;9.29;100.00;100685.03;5114162;28;20035;-78
2022/11/10 04:50:43;;;;;;;5.83;4.83;;;;;;;9.37;100.00;100693.06;5112823;28;20032;-77
2022/11/10 04:53:08;;;;;;;4.80;4.10;;;;;;;9.33;100.00;100702.34;5113569;28;20596;-76
2022/11/10 04:55:37;;;;;;;5.97;4.30;;;;;;;9.28;100.00;100694.84;5111814;28;20030;-76
2022/11/10 04:58:04;;;;;;;6.90;4.67;;;;;;;9.31;100.00;100704.31;5113284;28;20027;-77
2022/11/10 05:00:30;;;;;;;6.83;4.70;;;;;;;9.30;100.00;100710.63;5113359;28;20028;-77
2022/11/10 05:02:58;;;;;;;6.70;4.60;;;;;;;9.27;100.00;100706.44;5112460;28;20020;-76
2022/11/10 05:05:24;;;;;;;5.10;4.15;;;;;;;9.25;100.00;100703.13;5113243;28;20035;-77
2022/11/10 05:07:50;;;;;;;6.90;4.60;;;;;;;9.31;100.00;100712.28;5113143;28;20043;-78
2022/11/10 05:10:15;;;;;;;6.43;4.90;;;;;;;9.29;100.00;100703.63;5113218;28;20026;-75
2022/11/10 05:12:41;;;;;;;4.30;3.90;;;;;;;9.32;100.00;100716.59;5113279;28;20034;-78
2022/11/10 05:15:08;;;;;;;5.23;4.43;;;;;;;9.28;100.00;100712.59;5113459;28;20031;-74
2022/11/10 05:17:33;;;;;;;6.03;4.83;;;;;;;9.31;100.00;100718.44;5113356;28;20032;-73
2022/11/10 05:19:59;;;;;;;5.10;4.57;;;;;;;9.33;100.00;100715.63;5114174;28;20080;-72
2022/11/10 05:22:25;;;;;;;5.57;4.93;;;;;;;9.31;100.00;100718.44;5115655;28;20020;-76
2022/11/10 05:24:50;;;;;;;5.27;4.77;;;;;;;9.20;100.00;100701.88;5115905;28;20130;-74
2022/11/10 05:27:16;;;;;;;4.97;4.47;;;;;;;9.29;100.00;100723.06;5118214;28;20382;-71
2022/11/10 05:29:42;;;;;;;5.27;4.77;;;;;;;9.35;100.00;100721.63;5116948;28;20024;-72
2022/11/10 05:32:07;;;;;;;5.80;4.73;;;;;;;9.33;100.00;100720.94;5118860;28;20027;-70
2022/11/10 05:34:33;;;;;;;5.30;4.80;;;;;;;9.30;100.00;100715.94;5117794;28;20039;-72
2022/11/10 05:36:58;;;;;;;5.30;4.80;;;;;;;9.29;100.00;100724.91;5113126;28;20596;-76
2022/11/10 05:39:24;;;;;;;7.47;4.70;;;;;;;9.31;100.00;100739.69;5112842;28;20027;-73
2022/11/10 05:41:50;;;;;;;5.13;4.63;;;;;;;9.32;100.00;100744.03;5112593;28;20027;-74
2022/11/10 05:44:17;;;;;;;5.60;5.03;;;;;;;9.27;100.00;100742.81;5112235;28;20052;-73
2022/11/10 05:46:48;;;;;;;7.90;5.17;;;;;;;9.27;100.00;100737.50;5112969;28;20031;-78
2022/11/10 05:49:14;;;;;;;7.30;5.57;;;;;;;9.25;100.00;100736.78;5113823;28;20427;-75
2022/11/10 05:51:40;;;;;;;6.43;5.53;;;;;;;9.35;100.00;100750.84;5117124;28;20037;-76
2022/11/10 05:54:06;;;;;;;6.60;5.43;;;;;;;9.37;100.00;100740.88;5133563;28;20098;-76
2022/11/10 05:56:31;;;;;;;6.87;6.17;;;;;;;9.34;100.00;100735.06;5130585;28;20067;-76
2022/11/10 05:58:57;;;;;;;7.60;6.60;;;;;;;9.38;100.00;100739.91;5132745;28;20034;-78
2022/11/10 06:01:22;;;;;;;8.53;6.73;;;;;;;9.43;100.00;100748.25;5128486;28;20111;-78
2022/11/10 06:03:48;;;;;;;7.03;5.90;;;;;;;9.44;100.00;100739.28;5116104;28;20118;-77
2022/11/10 06:06:13;;;;;;;9.23;6.67;;;;;;;9.44;100.00;100733.13;5117134;28;20023;-78
2022/11/10 06:08:39;;;;;;;9.20;7.27;;;;;;;9.47;100.00;100743.44;5116760;28;20111;-78
2022/11/10 06:11:04;;;;;;;9.60;8.10;;;;;;;9.47;100.00;100744.28;5114758;28;20027;-77
2022/11/10 06:13:30;;;;;;;10.23;8.23;;;;;;;9.47;100.00;100748.75;5115971;28;20118;-76
2022/11/10 06:15:56;;;;;;;8.60;7.20;;;;;;;9.49;100.00;100758.25;5114301;28;20074;-77
2022/11/10 06:18:21;;;;;;;10.33;8.23;;;;;;;9.33;100.00;100728.91;5115431;28;20023;-78
2022/11/10 06:20:47;;;;;;;9.67;8.60;;;;;;;9.47;100.00;100741.63;5115898;28;20160;-77
2022/11/10 06:23:13;;;;;;;10.77;8.20;;;;;;;9.45;100.00;100748.09;5116003;28;20359;-77
2022/11/10 06:25:55;;;;;;;11.87;8.33;;;;;;;9.40;100.00;100735.25;5117762;28;20084;-77
2022/11/10 06:28:20;;;;;;;11.20;9.30;;;;;;;9.30;100.00;100722.09;5118720;28;20091;-76
2022/11/10 06:30:49;;;;;;;10.87;8.83;;;;;;;9.32;100.00;100730.72;5119624;28;20066;-76
2022/11/10 06:50:37;;;;;;;13.83;10.57;;;;;;;9.51;100.00;100761.56;6045493;23;20257;-76
2022/11/10 06:53:12;;;;;;;14.63;10.40;;;;;;;9.59;100.00;100772.28;4975964;28;20045;-76
2022/11/10 06:55:38;;;;;;;12.87;10.10;;;;;;;9.57;100.00;100776.94;4976905;28;20045;-76
2022/11/10 06:58:04;;;;;;;14.37;11.27;;;;;;;9.58;100.00;100780.44;4980953;28;20027;-78
2022/11/10 07:00:30;;;;;;;19.33;12.27;;;;;;;9.60;100.00;100781.94;4981207;28;20475;-78
2022/11/10 07:03:07;;;;;;;17.53;11.90;;;;;;;9.61;100.00;100783.59;4980398;28;20088;-78
2022/11/10 07:05:34;;;;;;;15.20;11.33;;;;;;;9.63;100.00;100786.09;4979140;28;20037;-78
2022/11/10 07:08:06;;;;;;;18.07;12.03;;;;;;;9.60;100.00;100784.59;4979236;28;20023;-75
2022/11/10 07:10:33;;;;;;;15.97;11.10;;;;;;;9.63;100.00;100791.44;4980371;28;20023;-77
2022/11/10 07:13:01;;;;;;;17.33;12.53;;;;;;;9.57;100.00;100787.56;4980398;28;20426;-77
2022/11/10 07:15:29;;;;;;;19.38;12.85;;;;;;;9.54;100.00;100797.66;4976314;28;20031;-75
2022/11/10 07:17:55;;;;;;;16.67;11.15;;;;;;;9.55;100.00;100789.56;4975889;28;20093;-76
2022/11/10 07:20:24;;;;;;;15.53;11.73;;;;;;;9.54;100.00;100793.19;4978181;28;20023;-78
2022/11/10 07:22:59;;;;;;;15.03;11.27;;;;;;;9.39;100.00;100765.50;4976984;28;20062;-77
2022/11/10 07:25:25;;;;;;;17.20;12.13;;;;;;;9.58;100.00;100802.53;4976542;28;20037;-76
2022/11/10 07:27:59;;;;;;;16.73;11.93;;;;;;;9.58;100.00;100815.81;4991479;28;20513;-77
2022/11/10 07:30:26;;;;;;;16.77;11.87;;;;;;;9.54;100.00;100805.63;4976371;28;20082;-79
2022/11/10 07:33:08;;;;;;;16.80;12.17;;;;;;;9.58;100.00;100809.69;4990966;28;20118;-78
2022/11/10 07:35:34;;;;;;;15.97;11.73;;;;;;;9.55;100.00;100810.81;4975785;28;20043;-78
2022/11/10 07:38:05;;;;;;;16.17;11.80;;;;;;;9.51;100.00;100806.78;4974926;28;20490;-75
2022/11/10 07:40:31;;;;;;;17.87;12.67;;;;;;;9.45;100.00;100807.41;4975858;28;20022;-77
2022/11/10 07:42:57;;;;;;;17.73;11.57;;;;;;;9.35;100.00;100796.03;4977502;28;20042;-76
2022/11/10 07:45:23;;;;;;;14.63;11.63;;;;;;;9.34;100.00;100810.31;4977087;28;20023;-77
2022/11/10 07:47:49;;;;;;;17.43;11.97;;;;;;;9.30;100.00;100812.44;4976051;28;20030;-77
2022/11/10 07:50:16;;;;;;;15.67;11.43;;;;;;;9.32;100.00;100809.63;4976210;28;20031;-76
2022/11/10 07:52:42;;;;;;;13.93;10.80;;;;;;;9.33;100.00;100816.63;4975910;28;20135;-77
2022/11/10 07:55:08;;;;;;;19.17;12.27;;;;;;;9.34;100.00;100818.28;4975892;28;20055;-77
2022/11/10 07:57:33;;;;;;;19.00;11.70;;;;;;;9.35;100.00;100813.81;4975796;28;20038;-76
2022/11/10 07:59:59;;;;;;;18.43;11.40;;;;;;;9.33;100.00;100816.63;4975416;28;20030;-76
2022/11/10 08:02:25;;;;;;;15.73;11.03;;;;;;;9.40;100.00;100828.28;4975011;28;20033;-77
2022/11/10 08:04:51;;;;;;;16.83;10.70;;;;;;;9.17;100.00;100790.72;4975890;28;20117;-77
2022/11/10 08:07:18;;;;;;;12.27;10.13;;;;;;;9.38;100.00;100824.97;4975854;28;20074;-77
2022/11/10 08:09:43;;;;;;;15.10;10.80;;;;;;;9.33;100.00;100827.25;4975429;28;20467;-78
2022/11/10 08:12:09;;;;;;;12.80;10.03;;;;;;;9.44;100.00;100834.97;4975788;28;20045;-79
2022/11/10 08:14:35;;;;;;;10.83;9.27;;;;;;;9.44;100.00;100834.97;4975480;28;20599;-77
2022/11/10 08:17:00;;;;;;;12.67;9.37;;;;;;;9.42;100.00;100831.63;4975704;28;20085;-78
2022/11/10 08:19:26;;;;;;;12.43;9.27;;;;;;;9.45;100.00;100836.63;4974485;28;20033;-78
2022/11/10 08:21:51;;;;;;;15.47;9.20;;;;;;;9.43;100.00;100835.97;4974753;28;20065;-78
2022/11/10 08:24:42;;;;;;;11.03;8.03;;;;;;;9.50;100.00;100844.97;4974912;28;20128;-75
2022/11/10 08:27:07;;;;;;;8.83;7.00;;;;;;;9.49;100.00;100843.31;4972857;28;20078;-76
2022/11/10 08:29:34;;;;;;;11.67;8.07;;;;;;;9.49;100.00;100853.13;4975265;28;20035;-75
2022/11/10 08:31:59;;;;;;;12.20;8.30;;;;;;;9.50;100.00;100855.63;4974644;28;20038;-77
2022/11/10 08:34:25;;;;;;;10.80;8.27;;;;;;;9.52;100.00;100848.31;4975633;28;20030;-77
2022/11/10 08:36:52;;;;;;;14.23;8.47;;;;;;;9.55;100.00;100853.34;4975072;28;20375;-76
2022/11/10 08:39:17;;;;;;;12.30;8.83;;;;;;;9.56;100.00;100863.00;4975198;28;20097;-79
2022/11/10 08:41:42;;;;;;;18.03;7.97;;;;;;;9.56;100.00;100860.34;4975140;28;20023;-75
2022/11/10 08:44:08;;;;;;;11.20;8.67;;;;;;;9.57;100.00;100861.19;4975074;28;20097;-77
2022/11/10 08:46:38;;;;;;;12.80;9.13;;;;;;;9.58;100.00;100862.84;4977018;28;20116;-76
2022/11/10 08:49:03;;;;;;;12.83;8.87;;;;;;;9.57;100.00;100866.50;4978300;28;20031;-77
2022/11/10 08:51:29;;;;;;;14.63;9.17;;;;;;;9.53;100.00;100860.63;4976410;28;20350;-77
2022/11/10 08:53:55;;;;;;;18.27;9.63;;;;;;;9.56;100.00;100870.97;4974719;28;20077;-77
2022/11/10 08:56:20;;;;;;;14.17;10.97;;;;;;;9.55;100.00;100871.13;4973719;28;20026;-77
2022/11/10 08:58:45;;;;;;;15.17;9.83;;;;;;;9.59;100.00;100886.63;4974857;28;20031;-76
2022/11/10 09:01:11;;;;;;;13.57;10.23;;;;;;;9.63;100.00;100882.66;4975376;28;20031;-77
2022/11/10 09:03:37;;;;;;;16.03;11.13;;;;;;;9.58;100.00;100879.63;4975284;28;20133;-77
2022/11/10 09:06:03;;;;;;;15.13;11.10;;;;;;;9.52;100.00;100882.06;4974514;28;20026;-79
2022/11/10 09:08:32;;;;;;;17.57;12.03;;;;;;;9.57;100.00;100891.25;4976011;28;20046;-77
2022/11/10 09:11:02;;;;;;;19.60;12.40;;;;;;;9.66;100.00;100888.66;4976965;28;20038;-77
2022/11/10 09:13:28;;;;;;;16.37;10.37;;;;;;;9.69;100.00;100885.69;4974773;28;20037;-76
2022/11/10 09:15:53;;;;;;;17.17;12.53;;;;;;;9.76;100.00;100892.91;4975669;28;20030;-77
2022/11/10 09:18:19;;;;;;;18.03;11.37;;;;;;;9.75;100.00;100890.41;4974597;28;20055;-77
2022/11/10 09:20:44;;;;;;;15.97;11.70;;;;;;;9.79;100.00;100887.28;4973213;28;20039;-77
2022/11/10 09:23:16;;;;;;;16.97;11.90;;;;;;;9.86;100.00;100882.19;4974449;28;20035;-78
2022/11/10 09:25:49;;;;;;;21.00;12.13;;;;;;;10.03;100.00;100883.94;4974562;28;20039;-78
2022/11/10 09:28:16;;;;;;;14.03;10.37;;;;;;;10.06;100.00;100888.97;4974802;28;20533;-78
2022/11/10 09:30:45;;;;;;;15.27;10.93;;;;;;;10.07;100.00;100895.94;4973897;28;20027;-77
2022/11/10 09:33:10;;;;;;;14.27;10.93;;;;;;;10.05;100.00;100892.63;4974278;28;20121;-77
2022/11/10 09:35:36;;;;;;;15.97;11.00;;;;;;;10.05;100.00;100887.28;4974430;28;20065;-78
2022/11/10 09:38:02;;;;;;;17.87;11.20;;;;;;;10.04;100.00;100895.44;4976437;28;20085;-78
2022/11/10 09:40:47;;;;;;;16.20;11.33;;;;;;;9.81;100.00;100864.00;4978595;28;20038;-78
2022/11/10 09:43:20;;;;;;;14.03;10.63;;;;;;;9.89;100.00;100888.03;4978070;28;20073;-78
2022/11/10 09:45:49;;;;;;;15.80;10.60;;;;;;;9.93;100.00;100907.16;4978205;28;20397;-78
2022/11/10 09:48:21;;;;;;;20.23;11.77;;;;;;;9.87;100.00;100905.13;4978094;28;20038;-77
2022/11/10 09:50:53;;;;;;;12.40;9.77;;;;;;;9.84;100.00;100900.13;4977837;28;20023;-77
2022/11/10 09:53:31;;;;;;;14.80;11.40;;;;;;;9.82;100.00;100902.09;4978181;28;20406;-77
2022/11/10 09:56:40;;;;;;;16.10;11.67;;;;;;;9.89;100.00;100903.16;4978515;28;20061;-77
2022/11/10 09:59:17;;;;;;;14.80;10.00;;;;;;;9.84;100.00;100908.13;4977728;28;20038;-76
2022/11/10 10:02:18;;;;;;;16.67;11.03;;;;;;;9.92;100.00;100921.47;4977520;28;20031;-79
2022/11/10 10:04:57;;;;;;;16.20;11.10;;;;;;;9.82;100.00;100910.06;4946053;28;20053;-78
2022/11/10 10:07:25;;;;;;;14.57;10.80;;;;;;;9.85;100.00;100918.59;4978047;28;20031;-77
2022/11/10 10:09:53;;;;;;;17.55;12.93;;;;;;;9.91;100.00;100922.47;4977862;28;20035;-78
2022/11/10 10:13:07;;;;;;;15.98;12.50;;;;;;;9.92;100.00;100918.81;4979900;28;20055;-79
2022/11/10 10:15:57;;;;;;;14.63;12.00;;;;;;;9.98;100.00;100910.19;4980464;28;20038;-77
2022/11/10 10:18:37;;;;;;;18.83;14.27;;;;;;;10.01;100.00;100912.53;4981335;28;20035;-76
2022/11/10 10:21:03;;;;;;;15.50;12.53;;;;;;;10.02;100.00;100919.53;4977649;28;20037;-77
2022/11/10 10:23:35;;;;;;;17.30;12.00;;;;;;;10.01;100.00;100911.72;4978340;28;20042;-78
2022/11/10 10:26:01;;;;;;;16.67;13.37;;;;;;;9.93;100.00;100913.31;4978566;28;20434;-76
2022/11/10 10:28:35;;;;;;;17.73;13.10;;;;;;;9.93;100.00;100920.47;4978692;28;20031;-77
2022/11/10 10:31:16;;;;;;;18.20;12.90;;;;;;;9.94;100.00;100927.47;4977869;28;20110;-77
2022/11/10 10:33:41;;;;;;;20.03;14.03;;;;;;;9.84;100.00;100916.09;4977039;28;20039;-80
2022/11/10 10:36:14;;;;;;;19.20;13.53;;;;;;;9.89;100.00;100919.94;4978653;28;20482;-76
2022/11/10 10:38:42;;;;;;;18.00;14.07;;;;;;;9.88;100.00;100917.44;4978608;28;20042;-77
2022/11/10 10:41:13;;;;;;;;;;;;;;;9.95;100.00;100923.81;4980093;28;20122;-76
2022/11/10 10:43:47;;;;;;;16.87;13.07;;;;;;;9.98;100.00;100923.50;4978223;28;19910;-78
2022/11/10 10:46:14;;;;;;;22.17;14.63;;;;;;;9.99;100.00;100924.34;4977214;28;20033;-78
2022/11/10 10:48:40;;;;;;;18.70;13.27;;;;;;;9.93;100.00;100916.00;4976359;28;20043;-77
2022/11/10 10:51:06;;;;;;;22.40;13.93;;;;;;;9.98;100.00;100923.50;4982925;28;20061;-80
2022/11/10 10:53:45;;;;;;;25.47;14.13;;;;;;;10.00;100.00;100932.16;5016899;28;20029;-76
2022/11/10 10:56:22;;;;;;;18.67;13.07;;;;;;;10.03;100.00;100937.16;5017650;28;20077;-78
2022/11/10 10:58:53;;;;;;;17.93;14.17;;;;;;;10.01;100.00;100933.84;5016596;28;20128;-77
2022/11/10 11:01:33;;;;;;;22.93;13.87;;;;;;;9.98;100.00;100928.81;5015997;28;20029;-78
2022/11/10 11:04:04;;;;;;;19.40;13.90;;;;;;;10.00;100.00;100944.63;5016424;28;20030;-77
2022/11/10 11:06:36;;;;;;;19.20;14.50;;;;;;;10.00;100.00;100948.13;5015120;28;20029;-77
2022/11/10 11:09:17;;;;;;;20.13;14.23;;;;;;;10.06;100.00;100950.16;5014981;28;20421;-78
2022/11/10 11:11:57;;;;;;;19.67;14.03;;;;;;;10.08;100.00;100956.16;5016039;28;20132;-76
2022/11/10 11:14:27;;;;;;;19.97;12.70;;;;;;;10.05;100.00;100940.50;5015325;28;20052;-77
2022/11/10 11:17:02;;;;;;;24.00;16.77;;;;;;;10.13;100.00;100945.91;5016331;28;20026;-77
2022/11/10 11:19:33;;;;;;;22.23;14.33;;;;;;;10.19;100.00;100947.94;5019704;28;20060;-78
2022/11/10 11:22:27;;;;;;;21.10;13.17;;;;;;;10.31;100.00;100950.38;5019170;28;20022;-76
2022/11/10 11:25:37;;;;;;;19.10;14.00;;;;;;;10.34;100.00;100960.72;5015628;28;20081;-77
2022/11/10 11:28:37;;;;;;;21.43;13.77;;;;;;;10.27;100.00;100954.34;5012414;28;20042;-77
2022/11/10 11:31:32;;;;;;;20.23;13.77;;;;;;;10.34;100.00;100966.03;5015407;28;20048;-77
2022/11/10 11:34:25;;;;;;;20.67;14.90;;;;;;;10.33;100.00;100964.38;5015804;28;20036;-79
2022/11/10 11:37:25;;;;;;;22.67;14.07;;;;;;;10.32;100.00;100965.34;5009199;28;20041;-79
2022/11/10 11:39:56;;;;;;;20.87;13.97;;;;;;;10.34;100.00;100963.38;5004312;28;20096;-78
2022/11/10 11:43:02;;;;;;;18.47;14.37;;;;;;;10.34;100.00;100974.03;5014884;28;20060;-78
2022/11/10 11:45:55;;;;;;;20.87;14.27;;;;;;;10.28;100.00;100959.50;4985221;28;20068;-76
2022/11/10 11:48:41;;;;;;;19.93;14.67;;;;;;;10.27;100.00;100951.69;5015839;28;20030;-77
2022/11/10 11:51:30;;;;;;;18.33;14.27;;;;;;;10.35;100.00;100965.03;4999017;28;20133;-75
2022/11/10 11:54:14;;;;;;;20.80;14.53;;;;;;;10.36;100.00;100961.38;5016708;28;20034;-77
2022/11/10 11:56:46;;;;;;;18.10;14.80;;;;;;;10.35;100.00;100955.22;5015974;28;20462;-77